createdAt,value
2023-06-30T00:00:09.090Z,3578.00
2023-06-30T00:01:09.135Z,3585.00
2023-06-30T00:02:09.131Z,3588.00
2023-06-30T00:03:09.230Z,3597.00
2023-06-30T00:04:09.153Z,3599.00
2023-06-30T00:05:09.108Z,3605.00
2023-06-30T00:06:09.112Z,3608.00
2023-06-30T00:07:09.113Z,3614.00
2023-06-30T00:08:09.089Z,3623.00
2023-06-30T00:09:09.097Z,3629.00
2023-06-30T00:10:09.096Z,3635.00
2023-06-30T00:11:09.128Z,3633.00
2023-06-30T00:12:09.081Z,3644.00
2023-06-30T00:13:09.067Z,3644.00
2023-06-30T00:14:09.074Z,3650.00
2023-06-30T00:15:09.082Z,3653.00
2023-06-30T00:16:09.138Z,3665.00
2023-06-30T00:17:09.079Z,3666.00
2023-06-30T00:18:09.115Z,3675.00
2023-06-30T00:19:09.103Z,3685.00
2023-06-30T00:20:09.111Z,3685.00
2023-06-30T00:21:09.082Z,3689.00
2023-06-30T00:22:09.122Z,3695.00
2023-06-30T00:23:09.093Z,3707.00
2023-06-30T00:24:09.052Z,3704.00
2023-06-30T00:25:09.065Z,3719.00
2023-06-30T00:26:09.061Z,3720.00
2023-06-30T00:27:09.044Z,3730.00
2023-06-30T00:28:09.037Z,3732.00
2023-06-30T00:29:09.058Z,3740.00
2023-06-30T00:30:09.092Z,3752.00
2023-06-30T00:31:09.178Z,3744.00
2023-06-30T00:32:09.090Z,3750.00
2023-06-30T00:33:09.106Z,3755.00
2023-06-30T00:34:09.079Z,3762.00
2023-06-30T00:35:09.205Z,3762.00
2023-06-30T00:36:09.123Z,3773.00
2023-06-30T00:37:09.131Z,3770.00
2023-06-30T00:38:09.237Z,3780.00
2023-06-30T00:39:09.186Z,3780.00
2023-06-30T00:40:09.215Z,3789.00
2023-06-30T00:41:09.170Z,3789.00
2023-06-30T00:42:09.162Z,3797.00
2023-06-30T00:43:09.175Z,3795.00
2023-06-30T00:44:09.171Z,3796.00
2023-06-30T00:45:09.164Z,3799.00
2023-06-30T00:46:09.133Z,3809.00
2023-06-30T00:47:09.216Z,3820.00
2023-06-30T00:48:09.170Z,3836.00
2023-06-30T00:49:09.129Z,3849.00
2023-06-30T00:50:09.134Z,3848.00
2023-06-30T00:51:09.097Z,3860.00
2023-06-30T00:52:09.093Z,3855.00
2023-06-30T00:53:09.102Z,3856.00
2023-06-30T00:54:09.097Z,3867.00
2023-06-30T00:55:09.247Z,3866.00
2023-06-30T00:56:09.056Z,3877.00
2023-06-30T00:57:09.055Z,3873.00
2023-06-30T00:58:09.050Z,3874.00
2023-06-30T00:59:09.016Z,3880.00
2023-06-30T01:00:09.056Z,3881.00
2023-06-30T01:01:08.978Z,3886.00
2023-06-30T01:02:09.047Z,3887.00
2023-06-30T01:03:09.118Z,3894.00
2023-06-30T01:04:09.158Z,3899.00
2023-06-30T01:05:09.013Z,3907.00
2023-06-30T01:06:09.050Z,3898.00
2023-06-30T01:07:09.022Z,3901.00
2023-06-30T01:08:08.964Z,3906.00
2023-06-30T01:09:08.936Z,3908.00
2023-06-30T01:10:08.980Z,3915.00
2023-06-30T01:11:08.937Z,3920.00
2023-06-30T01:12:08.934Z,3914.00
2023-06-30T01:13:08.981Z,3915.00
2023-06-30T01:14:08.975Z,3915.00
2023-06-30T01:15:08.973Z,3918.00
2023-06-30T01:16:09.001Z,3922.00
2023-06-30T01:17:08.968Z,3925.00
2023-06-30T01:18:08.965Z,3931.00
2023-06-30T01:19:08.984Z,3935.00
2023-06-30T01:20:09.022Z,3945.00
2023-06-30T01:21:09.017Z,3936.00
2023-06-30T01:22:08.994Z,3938.00
2023-06-30T01:23:08.979Z,3947.00
2023-06-30T01:24:08.992Z,3946.00
2023-06-30T01:25:08.970Z,3950.00
2023-06-30T01:26:09.037Z,3960.00
2023-06-30T01:27:08.991Z,3960.00
2023-06-30T01:28:08.958Z,3961.00
2023-06-30T01:29:08.974Z,3964.00
2023-06-30T01:30:08.915Z,3973.00
2023-06-30T01:31:09.002Z,3978.00
2023-06-30T01:32:08.912Z,3985.00
2023-06-30T01:33:08.954Z,3997.00
2023-06-30T01:34:08.908Z,4002.00
2023-06-30T01:35:08.924Z,4003.00
2023-06-30T01:36:08.874Z,4003.00
2023-06-30T01:37:08.891Z,4004.00
2023-06-30T01:38:08.857Z,4018.00
2023-06-30T01:39:08.842Z,4023.00
2023-06-30T01:40:08.882Z,4022.00
2023-06-30T01:41:08.858Z,4032.00
2023-06-30T01:42:08.832Z,4028.00
2023-06-30T01:43:08.894Z,4018.00
2023-06-30T01:44:08.865Z,4019.00
2023-06-30T01:45:08.825Z,4018.00
2023-06-30T01:46:08.898Z,4017.00
2023-06-30T01:47:08.761Z,4022.00
2023-06-30T01:48:08.753Z,4027.00
2023-06-30T01:49:08.758Z,4035.00
2023-06-30T01:50:08.756Z,4031.00
2023-06-30T01:51:08.747Z,4036.00
2023-06-30T01:52:08.731Z,4039.00
2023-06-30T01:53:08.723Z,4042.00
2023-06-30T01:54:08.716Z,4046.00
2023-06-30T01:55:08.700Z,4060.00
2023-06-30T01:56:08.694Z,4058.00
2023-06-30T01:57:08.669Z,4062.00
2023-06-30T01:58:08.685Z,4057.00
2023-06-30T01:59:08.657Z,4076.00
2023-06-30T02:00:08.655Z,4083.00
2023-06-30T02:01:08.686Z,4073.00
2023-06-30T02:02:08.654Z,4084.00
2023-06-30T02:03:08.774Z,4082.00
2023-06-30T02:04:08.626Z,4086.00
2023-06-30T02:05:08.685Z,4090.00
2023-06-30T02:06:08.611Z,4090.00
2023-06-30T02:07:09.437Z,4094.00
2023-06-30T02:08:08.605Z,4088.00
2023-06-30T02:09:08.666Z,4097.00
2023-06-30T02:10:08.598Z,4095.00
2023-06-30T02:11:08.562Z,4100.00
2023-06-30T02:12:08.573Z,4105.00
2023-06-30T02:13:08.556Z,4100.00
2023-06-30T02:14:08.608Z,4105.00
2023-06-30T02:15:08.578Z,4112.00
2023-06-30T02:16:08.584Z,4105.00
2023-06-30T02:17:08.530Z,4107.00
2023-06-30T02:18:08.513Z,4111.00
2023-06-30T02:19:08.503Z,4101.00
2023-06-30T02:20:08.530Z,4106.00
2023-06-30T02:21:08.502Z,4111.00
2023-06-30T02:22:08.502Z,4111.00
2023-06-30T02:23:08.525Z,4112.00
2023-06-30T02:24:08.510Z,4115.00
2023-06-30T02:25:08.500Z,4116.00
2023-06-30T02:26:08.481Z,4128.00
2023-06-30T02:27:08.482Z,4126.00
2023-06-30T02:28:08.464Z,4126.00
2023-06-30T02:29:08.533Z,4132.00
2023-06-30T02:30:08.495Z,4132.00
2023-06-30T02:31:08.537Z,4135.00
2023-06-30T02:32:08.455Z,4129.00
2023-06-30T02:33:08.445Z,4127.00
2023-06-30T02:34:08.438Z,4124.00
2023-06-30T02:35:08.594Z,4133.00
2023-06-30T02:36:08.468Z,4132.00
2023-06-30T02:37:08.420Z,4134.00
2023-06-30T02:38:08.435Z,4135.00
2023-06-30T02:39:08.400Z,4135.00
2023-06-30T02:40:08.444Z,4140.00
2023-06-30T02:41:08.427Z,4136.00
2023-06-30T02:42:08.414Z,4139.00
2023-06-30T02:43:08.416Z,4145.00
2023-06-30T02:44:08.388Z,4143.00
2023-06-30T02:45:08.373Z,4138.00
2023-06-30T02:46:08.423Z,4143.00
2023-06-30T02:47:08.397Z,4146.00
2023-06-30T02:48:08.342Z,4133.00
2023-06-30T02:49:08.354Z,4146.00
2023-06-30T02:50:08.443Z,4136.00
2023-06-30T02:51:08.348Z,4142.00
2023-06-30T02:52:08.381Z,4139.00
2023-06-30T02:53:08.360Z,4134.00
2023-06-30T02:54:08.372Z,4141.00
2023-06-30T02:55:08.386Z,4142.00
2023-06-30T02:56:08.348Z,4134.00
2023-06-30T02:57:08.374Z,4136.00
2023-06-30T02:58:08.390Z,4132.00
2023-06-30T02:59:08.347Z,4139.00
2023-06-30T03:00:08.361Z,4139.00
2023-06-30T03:01:08.391Z,4144.00
2023-06-30T03:02:08.549Z,4141.00
2023-06-30T03:03:08.453Z,4140.00
2023-06-30T03:04:08.564Z,4137.00
2023-06-30T03:05:08.379Z,4157.00
2023-06-30T03:06:08.341Z,4141.00
2023-06-30T03:07:08.395Z,4144.00
2023-06-30T03:08:08.338Z,4154.00
2023-06-30T03:09:08.403Z,4156.00
2023-06-30T03:10:08.356Z,4147.00
2023-06-30T03:11:08.385Z,4144.00
2023-06-30T03:12:08.318Z,4143.00
2023-06-30T03:13:08.423Z,4149.00
2023-06-30T03:14:08.331Z,4144.00
2023-06-30T03:15:08.356Z,4129.00
2023-06-30T03:16:08.321Z,4140.00
2023-06-30T03:17:08.428Z,4130.00
2023-06-30T03:18:08.354Z,4122.00
2023-06-30T03:19:08.319Z,4125.00
2023-06-30T03:20:08.365Z,4128.00
2023-06-30T03:21:08.283Z,4131.00
2023-06-30T03:22:08.263Z,4128.00
2023-06-30T03:23:08.283Z,4123.00
2023-06-30T03:24:08.264Z,4124.00
2023-06-30T03:25:08.264Z,4119.00
2023-06-30T03:26:08.362Z,4110.00
2023-06-30T03:27:08.312Z,4108.00
2023-06-30T03:28:08.264Z,4099.00
2023-06-30T03:29:08.259Z,4116.00
2023-06-30T03:30:08.279Z,4108.00
2023-06-30T03:31:08.341Z,4107.00
2023-06-30T03:32:08.297Z,4111.00
2023-06-30T03:33:08.274Z,4107.00
2023-06-30T03:34:08.349Z,4104.00
2023-06-30T03:35:08.345Z,4098.00
2023-06-30T03:36:08.287Z,4093.00
2023-06-30T03:37:08.244Z,4101.00
2023-06-30T03:39:27.134Z,500.00
2023-06-30T03:40:27.242Z,500.00
2023-06-30T03:41:27.145Z,500.00
2023-06-30T03:42:27.178Z,500.00
2023-06-30T03:43:27.189Z,500.00
2023-06-30T03:44:27.159Z,500.00
2023-06-30T03:45:27.215Z,503.00
2023-06-30T03:46:27.211Z,501.00
2023-06-30T03:47:27.240Z,503.00
2023-06-30T03:48:27.189Z,502.00
2023-06-30T03:49:27.202Z,502.00
2023-06-30T03:50:27.199Z,502.00
2023-06-30T03:51:27.190Z,503.00
2023-06-30T03:52:27.201Z,505.00
2023-06-30T03:53:27.200Z,504.00
2023-06-30T03:54:27.211Z,502.00
2023-06-30T03:55:27.293Z,502.00
2023-06-30T03:56:27.198Z,506.00
2023-06-30T03:57:27.237Z,504.00
2023-06-30T03:58:27.200Z,506.00
2023-06-30T03:59:27.230Z,506.00
2023-06-30T04:00:27.249Z,507.00
2023-06-30T04:01:27.212Z,510.00
2023-06-30T04:02:27.356Z,507.00
2023-06-30T04:03:28.163Z,508.00
2023-06-30T04:04:27.359Z,513.00
2023-06-30T04:05:27.243Z,513.00
2023-06-30T04:06:27.226Z,510.00
2023-06-30T04:07:27.268Z,510.00
2023-06-30T04:08:27.394Z,514.00
2023-06-30T04:09:27.255Z,514.00
2023-06-30T04:10:27.264Z,512.00
2023-06-30T04:11:27.243Z,514.00
2023-06-30T04:12:27.237Z,511.00
2023-06-30T04:13:27.250Z,515.00
2023-06-30T04:14:27.258Z,516.00
2023-06-30T04:15:27.716Z,514.00
2023-06-30T04:16:27.307Z,511.00
2023-06-30T04:17:27.298Z,519.00
2023-06-30T04:18:27.264Z,516.00
2023-06-30T04:19:27.275Z,512.00
2023-06-30T04:20:27.275Z,517.00
2023-06-30T04:21:27.275Z,515.00
2023-06-30T04:22:27.277Z,517.00
2023-06-30T04:23:27.297Z,518.00
2023-06-30T04:24:27.314Z,514.00
2023-06-30T04:25:27.321Z,518.00
2023-06-30T04:26:27.307Z,517.00
2023-06-30T04:27:27.330Z,520.00
2023-06-30T04:28:27.320Z,520.00
2023-06-30T04:29:27.323Z,517.00
2023-06-30T04:30:27.337Z,516.00
2023-06-30T04:31:27.374Z,517.00
2023-06-30T04:32:27.359Z,517.00
2023-06-30T04:33:27.327Z,516.00
2023-06-30T04:34:27.317Z,517.00
2023-06-30T04:35:27.512Z,518.00
2023-06-30T04:36:27.324Z,519.00
2023-06-30T04:37:27.335Z,519.00
2023-06-30T04:38:27.355Z,522.00
2023-06-30T04:39:27.336Z,521.00
2023-06-30T04:40:27.397Z,522.00
2023-06-30T04:41:27.344Z,523.00
2023-06-30T04:42:27.342Z,520.00
2023-06-30T04:43:27.352Z,518.00
2023-06-30T04:44:27.350Z,517.00
2023-06-30T04:45:27.361Z,521.00
2023-06-30T04:46:27.402Z,516.00
2023-06-30T04:47:27.375Z,520.00
2023-06-30T04:48:27.380Z,520.00
2023-06-30T04:49:27.394Z,519.00
2023-06-30T04:50:27.399Z,516.00
2023-06-30T04:51:27.415Z,519.00
2023-06-30T04:52:27.443Z,515.00
2023-06-30T04:53:27.419Z,519.00
2023-06-30T04:54:27.406Z,516.00
2023-06-30T04:55:27.430Z,516.00
2023-06-30T04:56:27.396Z,518.00
2023-06-30T04:57:27.388Z,514.00
2023-06-30T04:58:27.411Z,516.00
2023-06-30T04:59:27.388Z,520.00
2023-06-30T05:00:27.411Z,516.00
2023-06-30T05:01:27.451Z,516.00
2023-06-30T05:02:27.453Z,515.00
2023-06-30T05:03:27.450Z,516.00
2023-06-30T05:04:27.446Z,514.00
2023-06-30T05:05:27.420Z,518.00
2023-06-30T05:06:27.460Z,516.00
2023-06-30T05:07:27.477Z,514.00
2023-06-30T05:08:27.463Z,515.00
2023-06-30T05:09:27.427Z,514.00
2023-06-30T05:10:27.435Z,512.00
2023-06-30T05:11:27.423Z,511.00
2023-06-30T05:12:27.447Z,513.00
2023-06-30T05:13:27.426Z,515.00
2023-06-30T05:14:27.437Z,510.00
2023-06-30T05:15:27.540Z,510.00
2023-06-30T05:16:27.498Z,510.00
2023-06-30T05:17:27.659Z,510.00
2023-06-30T05:18:27.456Z,513.00
2023-06-30T05:19:27.465Z,512.00
2023-06-30T05:20:27.450Z,508.00
2023-06-30T05:21:27.471Z,510.00
2023-06-30T05:22:27.491Z,508.00
2023-06-30T05:23:27.558Z,507.00
2023-06-30T05:24:27.447Z,508.00
2023-06-30T05:25:27.476Z,512.00
2023-06-30T05:26:27.442Z,509.00
2023-06-30T05:27:27.638Z,511.00
2023-06-30T05:28:27.445Z,512.00
2023-06-30T05:29:27.769Z,508.00
2023-06-30T05:30:27.468Z,508.00
2023-06-30T05:31:27.497Z,508.00
2023-06-30T05:32:27.469Z,505.00
2023-06-30T05:33:27.471Z,508.00
2023-06-30T05:34:27.494Z,507.00
2023-06-30T05:35:27.460Z,506.00
2023-06-30T05:36:27.493Z,504.00
2023-06-30T05:37:27.603Z,507.00
2023-06-30T05:38:27.573Z,512.00
2023-06-30T05:39:27.539Z,525.00
2023-06-30T05:40:27.585Z,522.00
2023-06-30T05:41:27.652Z,545.00
2023-06-30T05:42:27.676Z,588.00
2023-06-30T05:43:27.703Z,603.00
2023-06-30T05:44:27.819Z,608.00
2023-06-30T05:45:27.781Z,615.00
2023-06-30T05:46:27.868Z,632.00
2023-06-30T05:47:27.906Z,643.00
2023-06-30T05:48:27.902Z,655.00
2023-06-30T05:49:28.271Z,663.00
2023-06-30T05:50:28.048Z,667.00
2023-06-30T05:51:28.116Z,694.00
2023-06-30T05:52:28.350Z,711.00
2023-06-30T05:53:28.233Z,735.00
2023-06-30T05:54:28.372Z,757.00
2023-06-30T05:55:28.372Z,778.00
2023-06-30T05:56:28.421Z,794.00
2023-06-30T05:57:28.522Z,817.00
2023-06-30T05:58:28.744Z,835.00
2023-06-30T05:59:28.758Z,865.00
2023-06-30T06:00:28.662Z,891.00
2023-06-30T06:01:28.795Z,918.00
2023-06-30T06:02:28.911Z,939.00
2023-06-30T06:03:28.945Z,967.00
2023-06-30T06:04:29.265Z,991.00
2023-06-30T06:05:29.104Z,1007.00
2023-06-30T06:06:29.150Z,1048.00
2023-06-30T06:07:29.067Z,1068.00
2023-06-30T06:08:29.112Z,1102.00
2023-06-30T06:09:29.227Z,1101.00
2023-06-30T06:10:29.184Z,1111.00
2023-06-30T06:11:29.223Z,1149.00
2023-06-30T06:12:29.309Z,1189.00
2023-06-30T06:13:29.383Z,1225.00
2023-06-30T06:14:29.384Z,1254.00
2023-06-30T06:15:29.426Z,1229.00
2023-06-30T06:16:29.485Z,1231.00
2023-06-30T06:17:29.541Z,1200.00
2023-06-30T06:18:29.537Z,1180.00
2023-06-30T06:19:29.589Z,1165.00
2023-06-30T06:20:30.638Z,1123.00
2023-06-30T06:21:29.594Z,1125.00
2023-06-30T06:22:29.581Z,1124.00
2023-06-30T06:23:29.585Z,1159.00
2023-06-30T06:24:29.739Z,1157.00
2023-06-30T06:25:29.765Z,1142.00
2023-06-30T06:26:29.756Z,1124.00
2023-06-30T06:27:29.801Z,1125.00
2023-06-30T06:28:29.864Z,1134.00
2023-06-30T06:29:29.902Z,1150.00
2023-06-30T06:30:30.016Z,1187.00
2023-06-30T06:31:30.115Z,1138.00
2023-06-30T06:32:30.255Z,1132.00
2023-06-30T06:33:30.126Z,1146.00
2023-06-30T06:34:30.153Z,1184.00
2023-06-30T06:35:30.171Z,1185.00
2023-06-30T06:36:31.863Z,1185.00
2023-06-30T06:37:30.166Z,1185.00
2023-06-30T06:38:30.146Z,1191.00
2023-06-30T06:39:30.158Z,1216.00
2023-06-30T06:40:30.124Z,1366.00
2023-06-30T06:41:30.140Z,1476.00
2023-06-30T06:42:30.127Z,1569.00
2023-06-30T06:43:30.149Z,1825.00
2023-06-30T06:44:30.102Z,2033.00
2023-06-30T06:45:30.114Z,2122.00
2023-06-30T06:46:30.141Z,2158.00
2023-06-30T06:47:30.175Z,2163.00
2023-06-30T06:48:30.250Z,2139.00
2023-06-30T06:49:30.204Z,2135.00
2023-06-30T06:50:30.402Z,2143.00
2023-06-30T06:51:30.307Z,2084.00
2023-06-30T06:52:30.315Z,1989.00
2023-06-30T06:53:30.368Z,1954.00
2023-06-30T06:54:30.449Z,1879.00
2023-06-30T06:55:30.437Z,1735.00
2023-06-30T06:56:30.482Z,1617.00
2023-06-30T06:57:30.466Z,1507.00
2023-06-30T06:58:30.436Z,1430.00
2023-06-30T06:59:30.439Z,1277.00
2023-06-30T07:00:30.441Z,1175.00
2023-06-30T07:01:30.470Z,1099.00
2023-06-30T07:02:30.433Z,1030.00
2023-06-30T07:03:30.443Z,1030.00
2023-06-30T07:04:30.420Z,970.00
2023-06-30T07:05:30.483Z,938.00
2023-06-30T07:06:30.406Z,887.00
2023-06-30T07:07:33.178Z,854.00
2023-06-30T07:08:30.410Z,840.00
2023-06-30T07:09:30.375Z,797.00
2023-06-30T07:10:30.385Z,779.00
2023-06-30T07:11:30.395Z,777.00
2023-06-30T07:12:30.389Z,753.00
2023-06-30T07:13:30.457Z,727.00
2023-06-30T07:14:30.385Z,728.00
2023-06-30T07:15:30.361Z,729.00
2023-06-30T07:16:30.427Z,727.00
2023-06-30T07:17:30.417Z,701.00
2023-06-30T07:18:30.482Z,677.00
2023-06-30T07:19:30.372Z,662.00
2023-06-30T07:20:30.362Z,660.00
2023-06-30T07:21:30.342Z,645.00
2023-06-30T07:22:30.333Z,645.00
2023-06-30T07:23:30.333Z,636.00
2023-06-30T07:25:30.340Z,628.00
2023-06-30T07:26:30.324Z,622.00
2023-06-30T07:27:30.351Z,624.00
2023-06-30T07:28:30.309Z,619.00
2023-06-30T07:29:30.308Z,614.00
2023-06-30T07:30:30.326Z,613.00
2023-06-30T07:31:30.403Z,620.00
2023-06-30T07:32:30.419Z,621.00
2023-06-30T07:33:30.454Z,619.00
2023-06-30T07:34:30.525Z,622.00
2023-06-30T07:35:30.564Z,633.00
2023-06-30T07:36:30.615Z,640.00
2023-06-30T07:37:30.718Z,644.00
2023-06-30T07:38:30.769Z,645.00
2023-06-30T07:39:31.996Z,615.00
2023-06-30T07:40:38.477Z,498.00
2023-06-30T07:41:31.787Z,423.00
2023-06-30T07:42:30.704Z,400.00
2023-06-30T07:43:31.450Z,400.00
2023-06-30T07:44:31.760Z,400.00
2023-06-30T07:45:30.925Z,400.00
2023-06-30T07:46:30.964Z,400.00
2023-06-30T07:47:31.009Z,400.00
2023-06-30T07:48:30.886Z,400.00
2023-06-30T07:49:31.013Z,400.00
2023-06-30T07:50:31.171Z,400.00
2023-06-30T07:51:30.849Z,400.00
2023-06-30T07:52:30.966Z,400.00
2023-06-30T07:53:30.976Z,423.00
2023-06-30T07:54:30.922Z,469.00
2023-06-30T07:55:31.002Z,509.00
2023-06-30T07:56:31.048Z,526.00
2023-06-30T07:57:30.966Z,524.00
2023-06-30T07:58:31.024Z,547.00
2023-06-30T07:59:31.019Z,570.00
2023-06-30T08:00:31.318Z,590.00
2023-06-30T08:01:31.065Z,615.00
2023-06-30T08:02:31.158Z,625.00
2023-06-30T08:03:31.388Z,637.00
2023-06-30T08:04:31.312Z,650.00
2023-06-30T08:05:31.243Z,690.00
2023-06-30T08:06:31.173Z,777.00
2023-06-30T08:07:49.539Z,841.00
2023-06-30T08:08:32.323Z,843.00
2023-06-30T08:09:31.205Z,854.00
2023-06-30T08:10:31.222Z,887.00
2023-06-30T08:11:31.212Z,948.00
2023-06-30T08:12:31.241Z,1043.00
2023-06-30T08:13:31.237Z,1110.00
2023-06-30T08:14:31.237Z,1140.00
2023-06-30T08:15:31.258Z,1200.00
2023-06-30T08:16:31.290Z,1247.00
2023-06-30T08:17:39.199Z,1282.00
2023-06-30T08:18:34.762Z,1284.00
2023-06-30T08:19:45.233Z,1285.00
2023-06-30T08:20:31.309Z,1287.00
2023-06-30T08:21:31.305Z,1306.00
2023-06-30T08:22:31.270Z,1340.00
2023-06-30T08:23:31.247Z,1401.00
2023-06-30T08:24:31.254Z,1499.00
2023-06-30T08:25:31.288Z,1531.00
2023-06-30T08:26:31.256Z,1555.00
2023-06-30T08:27:31.264Z,1579.00
2023-06-30T08:28:31.274Z,1598.00
2023-06-30T08:29:31.277Z,1624.00
2023-06-30T08:30:31.286Z,1651.00
2023-06-30T08:31:31.309Z,1661.00
2023-06-30T08:32:31.298Z,1661.00
2023-06-30T08:34:31.262Z,1510.00
2023-06-30T08:35:31.255Z,1364.00
2023-06-30T08:36:31.259Z,1275.00
2023-06-30T08:37:31.264Z,1196.00
2023-06-30T08:38:31.260Z,1131.00
2023-06-30T08:39:31.258Z,1095.00
2023-06-30T08:40:31.289Z,1078.00
2023-06-30T08:41:31.329Z,1049.00
2023-06-30T08:42:31.240Z,1023.00
2023-06-30T08:43:31.254Z,974.00
2023-06-30T08:44:31.233Z,948.00
2023-06-30T08:45:31.242Z,891.00
2023-06-30T08:46:31.255Z,863.00
2023-06-30T08:47:31.246Z,855.00
2023-06-30T08:48:31.246Z,814.00
2023-06-30T08:49:31.266Z,807.00
2023-06-30T08:50:31.257Z,847.00
2023-06-30T08:51:31.227Z,872.00
2023-06-30T08:52:31.278Z,874.00
2023-06-30T08:53:31.216Z,877.00
2023-06-30T08:54:31.233Z,875.00
2023-06-30T08:55:31.228Z,875.00
2023-06-30T08:56:31.232Z,874.00
2023-06-30T08:57:31.215Z,835.00
2023-06-30T08:58:31.232Z,802.00
2023-06-30T08:59:31.219Z,764.00
2023-06-30T09:00:31.251Z,745.00
2023-06-30T09:01:31.249Z,710.00
2023-06-30T09:02:31.289Z,710.00
2023-06-30T09:03:31.254Z,686.00
2023-06-30T09:04:31.276Z,662.00
2023-06-30T09:05:31.207Z,657.00
2023-06-30T09:06:31.214Z,648.00
2023-06-30T09:07:31.263Z,642.00
2023-06-30T09:08:31.213Z,635.00
2023-06-30T09:09:31.230Z,636.00
2023-06-30T09:10:31.220Z,629.00
2023-06-30T09:11:31.224Z,625.00
2023-06-30T09:12:31.225Z,621.00
2023-06-30T09:13:31.252Z,628.00
2023-06-30T09:14:31.249Z,621.00
2023-06-30T09:15:31.240Z,622.00
2023-06-30T09:16:31.276Z,622.00
2023-06-30T09:17:31.304Z,619.00
2023-06-30T09:18:31.273Z,617.00
2023-06-30T09:19:31.269Z,613.00
2023-06-30T09:20:31.302Z,608.00
2023-06-30T09:21:31.337Z,606.00
2023-06-30T09:22:51.758Z,604.00
2023-06-30T09:23:32.301Z,604.00
2023-06-30T09:24:31.287Z,598.00
2023-06-30T09:25:31.287Z,597.00
2023-06-30T09:26:32.469Z,593.00
2023-06-30T09:27:31.286Z,596.00
2023-06-30T09:28:31.293Z,590.00
2023-06-30T09:29:31.293Z,586.00
2023-06-30T09:30:31.310Z,594.00
2023-06-30T09:31:31.327Z,590.00
2023-06-30T09:32:31.336Z,603.00
2023-06-30T09:33:31.294Z,600.00
2023-06-30T09:34:31.306Z,601.00
2023-06-30T09:35:31.316Z,608.00
2023-06-30T09:36:31.318Z,612.00
2023-06-30T09:37:31.364Z,616.00
2023-06-30T09:38:31.321Z,617.00
2023-06-30T09:39:31.328Z,622.00
2023-06-30T09:40:31.334Z,627.00
2023-06-30T09:41:31.342Z,634.00
2023-06-30T09:42:31.350Z,641.00
2023-06-30T09:43:31.366Z,641.00
2023-06-30T09:44:31.351Z,643.00
2023-06-30T09:45:31.352Z,646.00
2023-06-30T09:46:31.457Z,656.00
2023-06-30T09:47:31.399Z,689.00
2023-06-30T09:48:31.375Z,732.00
2023-06-30T09:49:31.527Z,773.00
2023-06-30T09:50:31.400Z,818.00
2023-06-30T09:51:31.397Z,840.00
2023-06-30T09:52:31.367Z,873.00
2023-06-30T09:53:31.364Z,917.00
2023-06-30T09:55:31.402Z,984.00
2023-06-30T09:56:31.438Z,1013.00
2023-06-30T09:57:31.473Z,1011.00
2023-06-30T09:58:31.439Z,1044.00
2023-06-30T09:59:31.374Z,1069.00
2023-06-30T10:00:36.374Z,1118.00
2023-06-30T10:01:32.413Z,1120.00
2023-06-30T10:02:31.478Z,1135.00
2023-06-30T10:03:31.492Z,1174.00
2023-06-30T10:04:31.385Z,1241.00
2023-06-30T10:05:31.458Z,1341.00
2023-06-30T10:06:31.388Z,1390.00
2023-06-30T10:07:31.413Z,1402.00
2023-06-30T10:08:31.387Z,1403.00
2023-06-30T10:09:31.456Z,1416.00
2023-06-30T10:10:31.564Z,1452.00
2023-06-30T10:11:31.390Z,1468.00
2023-06-30T10:12:31.394Z,1469.00
2023-06-30T10:13:31.416Z,1477.00
2023-06-30T10:14:31.406Z,1490.00
2023-06-30T10:15:31.402Z,1510.00
2023-06-30T10:16:31.475Z,1556.00
2023-06-30T10:17:31.466Z,1586.00
2023-06-30T10:18:31.433Z,1600.00
2023-06-30T10:19:31.411Z,1635.00
2023-06-30T10:21:32.493Z,1645.00
2023-06-30T10:22:31.413Z,1649.00
2023-06-30T10:23:31.412Z,1666.00
2023-06-30T10:24:31.469Z,1703.00
2023-06-30T10:25:31.481Z,1761.00
2023-06-30T10:26:31.429Z,1783.00
2023-06-30T10:27:31.456Z,1797.00
2023-06-30T10:28:31.454Z,1830.00
2023-06-30T10:29:31.428Z,1845.00
2023-06-30T10:30:31.564Z,1862.00
2023-06-30T10:31:31.473Z,1863.00
2023-06-30T10:32:31.631Z,1869.00
2023-06-30T10:33:31.647Z,1875.00
2023-06-30T10:34:31.612Z,1904.00
2023-06-30T10:35:31.626Z,1924.00
2023-06-30T10:36:31.645Z,1935.00
2023-06-30T10:37:31.669Z,1968.00
2023-06-30T10:38:31.701Z,1978.00
2023-06-30T10:39:31.715Z,1989.00
2023-06-30T10:40:31.780Z,1996.00
2023-06-30T10:41:31.863Z,1995.00
2023-06-30T10:42:31.853Z,2009.00
2023-06-30T10:43:31.920Z,2016.00
2023-06-30T10:44:31.989Z,2022.00
2023-06-30T10:45:32.095Z,2013.00
2023-06-30T10:46:32.122Z,2011.00
2023-06-30T10:47:32.215Z,2006.00
2023-06-30T10:48:32.228Z,2006.00
2023-06-30T10:49:32.284Z,2016.00
2023-06-30T10:50:32.336Z,2008.00
2023-06-30T10:51:32.409Z,2013.00
2023-06-30T10:52:32.462Z,2012.00
2023-06-30T10:53:32.465Z,2007.00
2023-06-30T10:54:32.566Z,2011.00
2023-06-30T10:55:32.581Z,2006.00
2023-06-30T10:56:32.587Z,2004.00
2023-06-30T10:57:32.664Z,1998.00
2023-06-30T10:58:32.661Z,2004.00
2023-06-30T10:59:32.700Z,1997.00
2023-06-30T11:00:32.793Z,2001.00
2023-06-30T11:01:32.803Z,2006.00
2023-06-30T11:02:32.893Z,1998.00
2023-06-30T11:03:32.967Z,2008.00
2023-06-30T11:04:33.110Z,1997.00
2023-06-30T11:05:32.933Z,1996.00
2023-06-30T11:06:33.045Z,1994.00
2023-06-30T11:07:33.131Z,1990.00
2023-06-30T11:08:33.053Z,1992.00
2023-06-30T11:09:33.120Z,1985.00
2023-06-30T11:10:33.215Z,1982.00
2023-06-30T11:11:33.270Z,1977.00
2023-06-30T11:12:33.298Z,1977.00
2023-06-30T11:13:33.269Z,1978.00
2023-06-30T11:14:33.346Z,1979.00
2023-06-30T11:15:33.267Z,1978.00
2023-06-30T11:16:33.270Z,1980.00
2023-06-30T11:17:33.310Z,1980.00
2023-06-30T11:18:33.379Z,1981.00
2023-06-30T11:19:33.298Z,1980.00
2023-06-30T11:20:33.269Z,1980.00
2023-06-30T11:21:33.283Z,1970.00
2023-06-30T11:22:33.282Z,1966.00
2023-06-30T11:23:33.330Z,1957.00
2023-06-30T11:24:33.421Z,1951.00
2023-06-30T11:25:33.426Z,1947.00
2023-06-30T11:26:33.458Z,1942.00
2023-06-30T11:27:33.500Z,1940.00
2023-06-30T11:28:33.526Z,1932.00
2023-06-30T11:29:33.582Z,1927.00
2023-06-30T11:30:33.603Z,1916.00
2023-06-30T11:31:33.686Z,1922.00
2023-06-30T11:32:33.659Z,1927.00
2023-06-30T11:33:33.729Z,1936.00
2023-06-30T11:34:33.784Z,1941.00
2023-06-30T11:35:33.783Z,1941.00
2023-06-30T11:36:33.813Z,1934.00
2023-06-30T11:37:33.897Z,1929.00
2023-06-30T11:38:33.849Z,1926.00
2023-06-30T11:39:33.869Z,1917.00
2023-06-30T11:40:33.888Z,1911.00
2023-06-30T11:41:33.937Z,1907.00
2023-06-30T11:42:33.965Z,1898.00
2023-06-30T11:43:33.999Z,1898.00
2023-06-30T11:44:34.033Z,1889.00
2023-06-30T11:45:34.100Z,1884.00
2023-06-30T11:46:34.171Z,1875.00
2023-06-30T11:47:34.228Z,1873.00
2023-06-30T11:48:34.210Z,1877.00
2023-06-30T11:49:34.237Z,1876.00
2023-06-30T11:50:34.251Z,1877.00
2023-06-30T11:51:34.302Z,1870.00
2023-06-30T11:52:34.297Z,1868.00
2023-06-30T11:53:34.401Z,1869.00
2023-06-30T11:54:34.415Z,1881.00
2023-06-30T11:55:34.468Z,1881.00
2023-06-30T11:56:34.491Z,1876.00
2023-06-30T11:57:34.540Z,1869.00
2023-06-30T11:58:34.581Z,1865.00
2023-06-30T11:59:34.605Z,1863.00
2023-06-30T12:00:34.660Z,1863.00
2023-06-30T12:01:34.728Z,1858.00
2023-06-30T12:02:34.772Z,1858.00
2023-06-30T12:03:34.820Z,1859.00
2023-06-30T12:04:34.775Z,1861.00
2023-06-30T12:05:34.827Z,1863.00
2023-06-30T12:06:34.748Z,1865.00
2023-06-30T12:07:34.876Z,1863.00
2023-06-30T12:08:34.746Z,1860.00
2023-06-30T12:09:34.741Z,1856.00
2023-06-30T12:10:34.743Z,1847.00
2023-06-30T12:11:34.738Z,1843.00
2023-06-30T12:12:34.719Z,1837.00
2023-06-30T12:13:34.727Z,1830.00
2023-06-30T12:14:34.788Z,1825.00
2023-06-30T12:15:34.778Z,1818.00
2023-06-30T12:16:34.822Z,1808.00
2023-06-30T12:17:34.859Z,1801.00
2023-06-30T12:18:34.837Z,1783.00
2023-06-30T12:19:34.857Z,1774.00